Time;durP1;ratioP1;P1;durP2;ratioP2;P2;SDS_P1;SDS_P2;PMS_P1;PMS_P2;Temp;Humidity;BMP_temperature;BMP_pressure;BME280_temperature;BME280_humidity;BME280_pressure;Samples;Min_cycle;Max_cycle;Signal;HPM_P1;HPM_P2
2022/12/23 00:00:43;;;;;;;38.35;17.12;;;9.40;78.70;;;;;;2521905;54;21584;-62
2022/12/23 00:03:11;;;;;;;31.75;16.83;;;9.40;78.70;;;;;;2319288;58;21048;-63
2022/12/23 00:05:39;;;;;;;35.85;16.75;;;9.40;78.60;;;;;;2318525;58;21059;-63
2022/12/23 00:08:07;;;;;;;37.60;16.30;;;9.40;78.60;;;;;;2317770;58;21587;-63
2022/12/23 00:10:36;;;;;;;36.67;16.00;;;9.40;78.60;;;;;;2318875;58;21615;-63
2022/12/23 00:15:49;;;;;;;39.13;17.40;;;9.40;78.60;;;;;;2561569;54;20952;-61
2022/12/23 00:18:16;;;;;;;33.40;16.42;;;9.50;78.50;;;;;;2320072;58;21111;-61
2022/12/23 00:20:43;;;;;;;34.00;15.57;;;9.50;78.50;;;;;;2320217;58;21084;-61
2022/12/23 00:23:10;;;;;;;40.08;17.23;;;9.50;78.40;;;;;;2319403;58;21516;-60
2022/12/23 00:25:43;;;;;;;34.60;16.33;;;9.50;78.50;;;;;;2544517;54;21057;-61
2022/12/23 00:28:13;;;;;;;29.75;15.25;;;9.50;78.50;;;;;;2318895;58;21052;-62
2022/12/23 00:30:46;;;;;;;31.48;16.02;;;9.50;78.50;;;;;;2318354;58;21536;-63
2022/12/23 00:33:14;;;;;;;28.00;13.32;;;9.50;78.20;;;;;;2318935;58;21560;-61
2022/12/23 00:35:42;;;;;;;37.03;16.50;;;9.40;78.60;;;;;;2318995;58;21564;-62
2022/12/23 00:38:09;;;;;;;40.97;17.90;;;9.40;78.70;;;;;;2318684;58;21064;-63
2022/12/23 00:43:22;;;;;;;36.35;18.30;;;9.50;78.70;;;;;;2531868;54;21604;-61
2022/12/23 00:45:49;;;;;;;37.22;17.12;;;9.50;78.60;;;;;;2318865;58;21068;-63
2022/12/23 00:51:01;;;;;;;42.10;17.95;;;9.50;78.70;;;;;;2388925;54;21016;-61
2022/12/23 00:53:28;;;;;;;42.50;18.55;;;9.50;78.60;;;;;;2319070;58;21064;-63
2022/12/23 00:55:56;;;;;;;36.80;18.48;;;9.40;78.60;;;;;;2318025;58;21127;-63
2022/12/23 00:58:24;;;;;;;42.10;21.20;;;9.40;78.70;;;;;;2318955;58;21045;-63
2022/12/23 01:06:23;;;;;;;37.78;17.50;;;9.50;78.70;;;;;;2318600;54;21128;-63
2022/12/23 01:08:50;;;;;;;36.63;18.52;;;9.40;78.70;;;;;;2450887;54;21068;-63
2022/12/23 01:11:17;;;;;;;38.30;19.90;;;9.40;78.80;;;;;;2318832;58;21052;-63
2022/12/23 01:13:45;;;;;;;41.20;18.20;;;9.40;78.70;;;;;;2317770;58;22122;-63
2022/12/23 01:16:12;;;;;;;35.13;16.35;;;9.40;78.90;;;;;;2318448;58;21107;-61
2022/12/23 01:18:40;;;;;;;41.80;18.20;;;9.40;78.80;;;;;;2318404;58;21060;-63
2022/12/23 01:21:09;;;;;;;41.58;19.05;;;9.40;78.90;;;;;;2319163;58;21059;-63
2022/12/23 01:23:37;;;;;;;34.80;17.02;;;9.40;78.80;;;;;;2318481;58;21516;-61
2022/12/23 01:26:07;;;;;;;43.10;19.50;;;9.50;78.80;;;;;;2318676;58;21112;-63
2022/12/23 01:28:35;;;;;;;35.25;17.05;;;9.50;78.90;;;;;;2318824;58;21619;-61
2022/12/23 01:31:04;;;;;;;35.00;17.83;;;9.50;78.80;;;;;;2317574;58;21584;-63
2022/12/23 01:33:32;;;;;;;38.40;18.98;;;9.50;78.80;;;;;;2318917;58;21620;-63
2022/12/23 01:36:01;;;;;;;38.67;19.23;;;9.50;79.50;;;;;;2319420;58;21587;-63
2022/12/23 01:38:28;;;;;;;44.60;19.60;;;9.50;78.80;;;;;;2319595;58;21119;-63
2022/12/23 01:40:56;;;;;;;43.83;19.75;;;9.50;78.70;;;;;;2318420;58;21128;-63
2022/12/23 01:43:42;;;;;;;35.03;17.92;;;9.50;78.70;;;;;;2318724;58;21075;-63
2022/12/23 01:46:10;;;;;;;44.25;21.23;;;9.50;78.60;;;;;;2317814;58;21540;-63
2022/12/23 01:48:38;;;;;;;37.80;17.50;;;9.50;78.60;;;;;;2317950;58;21470;-63
2022/12/23 01:53:46;;;;;;;39.22;18.87;;;9.60;78.60;;;;;;2355510;57;22062;-61
2022/12/23 01:56:16;;;;;;;35.67;18.42;;;9.50;78.40;;;;;;2346784;57;21514;-63
2022/12/23 01:58:47;;;;;;;44.25;20.00;;;9.50;78.40;;;;;;2346441;57;21034;-63
2022/12/23 02:04:03;;;;;;;35.03;17.95;;;9.60;78.40;;;;;;2592894;53;20878;-62
2022/12/23 02:09:22;;;;;;;39.72;18.42;;;9.50;78.50;;;;;;2482155;53;20926;-62
2022/12/23 02:18:31;;;;;;;37.53;18.45;;;9.30;80.60;;;;;;2346785;57;21057;-63
2022/12/23 02:21:12;;;;;;;36.05;17.67;;;9.40;79.80;;;;;;2346371;57;21715;-61
2022/12/23 02:24:28;;;;;;;43.42;20.00;;;9.50;79.20;;;;;;2347199;57;21647;-61
2022/12/23 02:30:33;;;;;;;35.13;19.05;;;9.50;78.70;;;;;;2356003;57;22010;-61
2022/12/23 02:33:25;;;;;;;41.25;19.87;;;9.50;78.60;;;;;;2345318;57;21715;-62
2022/12/23 02:36:06;;;;;;;35.88;17.67;;;9.50;78.60;;;;;;2345022;57;21529;-61
2022/12/23 02:38:42;;;;;;;51.10;21.90;;;9.50;78.60;;;;;;2345614;57;21541;-60
2022/12/23 02:41:18;;;;;;;49.50;22.40;;;9.50;78.60;;;;;;2345921;57;21045;-62
2022/12/23 02:43:48;;;;;;;46.03;20.73;;;9.50;78.70;;;;;;2345473;57;21537;-62
2022/12/23 02:46:21;;;;;;;44.05;21.02;;;9.50;78.70;;;;;;2345173;57;21045;-61
2022/12/23 02:48:55;;;;;;;40.12;17.67;;;9.50;78.80;;;;;;2346758;57;21074;-62
2022/12/23 02:51:30;;;;;;;53.92;23.12;;;9.50;78.70;;;;;;2346223;57;21590;-62
2022/12/23 02:54:00;;;;;;;38.78;19.05;;;9.50;78.60;;;;;;2345887;57;21009;-62
2022/12/23 02:56:30;;;;;;;41.47;21.00;;;9.50;78.50;;;;;;2347110;57;21014;-62
2022/12/23 02:59:02;;;;;;;46.28;22.50;;;9.50;78.40;;;;;;2435419;52;21046;-56
2022/12/23 03:01:32;;;;;;;39.20;17.90;;;9.60;78.50;;;;;;2377627;56;21586;-57
2022/12/23 03:04:00;;;;;;;44.20;20.00;;;9.60;78.50;;;;;;2376494;56;21490;-53
2022/12/23 03:06:31;;;;;;;43.03;22.27;;;9.50;78.50;;;;;;2376231;56;21018;-52
2022/12/23 03:08:59;;;;;;;46.72;21.40;;;9.60;79.20;;;;;;2376204;56;21042;-52
2022/12/23 03:11:38;;;;;;;47.25;22.00;;;9.60;78.60;;;;;;2375494;56;21146;-52
2022/12/23 03:14:46;;;;;;;45.22;20.60;;;9.50;78.60;;;;;;2375581;56;21590;-54
2022/12/23 03:17:29;;;;;;;46.83;21.60;;;9.50;78.60;;;;;;2375500;56;22211;-51
2022/12/23 03:20:05;;;;;;;44.08;21.73;;;9.50;78.40;;;;;;2376329;56;21015;-52
2022/12/23 03:22:37;;;;;;;53.75;22.90;;;9.60;78.50;;;;;;2376571;56;21513;-52
2022/12/23 03:25:11;;;;;;;44.45;20.92;;;9.50;78.60;;;;;;2375558;56;21507;-51
2022/12/23 03:27:42;;;;;;;43.67;20.73;;;9.50;78.50;;;;;;2375587;56;21099;-53
2022/12/23 03:30:13;;;;;;;45.38;21.67;;;9.50;78.60;;;;;;2375790;56;21027;-50
2022/12/23 03:32:46;;;;;;;51.60;22.58;;;9.60;78.70;;;;;;2375556;56;21019;-50
2022/12/23 03:35:16;;;;;;;48.35;23.30;;;9.60;78.70;;;;;;2375803;56;21565;-52
2022/12/23 03:37:48;;;;;;;46.25;21.30;;;9.60;78.60;;;;;;2375669;56;21035;-53
2022/12/23 03:40:21;;;;;;;46.25;22.27;;;9.60;78.70;;;;;;2374887;56;21022;-51
2022/12/23 03:42:53;;;;;;;50.12;23.35;;;9.60;78.70;;;;;;2374031;56;21692;-54
2022/12/23 03:45:26;;;;;;;40.88;19.00;;;9.60;78.60;;;;;;2375933;56;21471;-52
2022/12/23 03:47:57;;;;;;;47.38;22.00;;;9.60;78.60;;;;;;2629534;52;20999;-51
2022/12/23 03:50:26;;;;;;;49.80;22.25;;;9.60;78.60;;;;;;2375471;56;21010;-50
2022/12/23 03:52:58;;;;;;;52.88;23.08;;;9.60;78.70;;;;;;2374568;56;21107;-51
2022/12/23 03:55:30;;;;;;;52.30;23.73;;;9.60;78.70;;;;;;2373577;56;21019;-54
2022/12/23 03:58:07;;;;;;;49.17;22.17;;;9.60;78.70;;;;;;2373826;56;21274;-54
2022/12/23 04:00:40;;;;;;;53.53;23.05;;;9.60;78.70;;;;;;2374379;56;21589;-49
2022/12/23 04:03:17;;;;;;;44.58;21.27;;;9.60;78.70;;;;;;2374632;56;21619;-52
2022/12/23 04:05:50;;;;;;;45.15;22.02;;;9.60;78.70;;;;;;2374805;56;21023;-49
2022/12/23 04:08:22;;;;;;;53.75;23.62;;;9.60;78.70;;;;;;2374754;56;21609;-53
2022/12/23 04:10:50;;;;;;;51.30;24.35;;;9.60;78.70;;;;;;2375310;56;21601;-51
2022/12/23 04:15:53;;;;;;;49.90;22.85;;;9.60;78.90;;;;;;2355137;57;22082;-53
2022/12/23 04:18:21;;;;;;;63.35;25.00;;;9.60;78.90;;;;;;2346763;57;21521;-51
2022/12/23 04:20:48;;;;;;;49.08;23.27;;;9.60;79.00;;;;;;2345623;57;21089;-53
2022/12/23 04:23:15;;;;;;;50.58;22.77;;;9.60;78.90;;;;;;2345076;57;21613;-53
2022/12/23 04:25:42;;;;;;;48.13;23.38;;;9.60;78.80;;;;;;2345592;57;22097;-51
2022/12/23 04:28:09;;;;;;;52.45;22.50;;;9.60;79.10;;;;;;2344914;57;21085;-53
2022/12/23 04:30:36;;;;;;;59.97;24.05;;;9.60;79.10;;;;;;2344095;57;21042;-50
2022/12/23 04:33:04;;;;;;;65.15;26.12;;;9.60;79.10;;;;;;2344871;57;21038;-54
2022/12/23 04:35:31;;;;;;;59.53;24.98;;;9.60;79.00;;;;;;2345717;57;21177;-49
2022/12/23 04:37:58;;;;;;;67.53;27.05;;;9.60;78.90;;;;;;2592836;52;21677;-51
2022/12/23 04:40:25;;;;;;;54.63;24.33;;;9.60;78.90;;;;;;2346332;57;21026;-50
2022/12/23 04:42:52;;;;;;;55.42;24.20;;;9.60;78.80;;;;;;2345761;57;21104;-50
2022/12/23 04:45:20;;;;;;;59.50;25.33;;;9.60;78.70;;;;;;2345450;57;21058;-49
2022/12/23 04:47:47;;;;;;;53.47;23.12;;;9.70;78.80;;;;;;2344703;57;21754;-52
2022/12/23 04:50:15;;;;;;;47.17;21.70;;;9.60;78.90;;;;;;2345427;57;21035;-53
2022/12/23 04:52:43;;;;;;;65.55;26.65;;;9.60;78.70;;;;;;2345458;57;21600;-51
2022/12/23 04:55:11;;;;;;;58.45;25.45;;;9.60;78.60;;;;;;2343926;57;21189;-48
2022/12/23 04:57:38;;;;;;;75.70;28.50;;;9.60;78.60;;;;;;2345554;57;21513;-52
2022/12/23 05:00:08;;;;;;;55.80;25.75;;;9.60;78.70;;;;;;2345405;57;21137;-53
2022/12/23 05:02:36;;;;;;;54.08;24.42;;;9.60;78.60;;;;;;2345844;57;21101;-53
2022/12/23 05:05:03;;;;;;;80.85;26.37;;;9.60;78.70;;;;;;2592131;53;21077;-48
2022/12/23 05:07:30;;;;;;;67.97;26.15;;;9.70;78.80;;;;;;2345588;57;21581;-54
2022/12/23 05:10:00;;;;;;;58.97;25.02;;;9.60;78.50;;;;;;2345364;57;21381;-49
2022/12/23 05:12:28;;;;;;;54.95;24.50;;;9.60;78.60;;;;;;2345053;57;21094;-52
2022/12/23 05:14:55;;;;;;;70.80;25.92;;;9.60;78.70;;;;;;2344553;57;21121;-51
2022/12/23 05:17:22;;;;;;;67.10;26.35;;;9.60;78.70;;;;;;2345198;57;21113;-50
2022/12/23 05:19:50;;;;;;;69.30;24.10;;;9.60;78.70;;;;;;2345562;57;21117;-51
2022/12/23 05:22:17;;;;;;;54.20;24.95;;;9.60;78.80;;;;;;2344007;57;21049;-48
2022/12/23 05:24:44;;;;;;;60.53;26.02;;;9.60;78.70;;;;;;2345466;57;21110;-54
2022/12/23 05:27:11;;;;;;;55.08;22.62;;;9.60;78.70;;;;;;2344030;57;21538;-48
2022/12/23 05:29:38;;;;;;;62.67;25.98;;;9.60;78.80;;;;;;2344380;57;21097;-51
2022/12/23 05:32:05;;;;;;;85.57;31.62;;;9.60;78.90;;;;;;2343723;57;21038;-52
2022/12/23 05:34:32;;;;;;;64.72;25.55;;;9.60;78.90;;;;;;2343076;57;21050;-50
2022/12/23 05:36:59;;;;;;;67.93;28.30;;;9.70;79.10;;;;;;2344412;57;21062;-50
2022/12/23 05:39:27;;;;;;;78.90;30.15;;;9.60;79.00;;;;;;2343263;57;21486;-49
2022/12/23 05:41:54;;;;;;;74.47;27.73;;;9.60;79.10;;;;;;2344335;57;21137;-48
2022/12/23 05:44:21;;;;;;;72.03;27.02;;;9.60;79.30;;;;;;2344573;57;21054;-54
2022/12/23 05:46:48;;;;;;;79.80;28.62;;;9.60;79.50;;;;;;2344942;57;21112;-51
2022/12/23 05:49:15;;;;;;;78.55;27.92;;;9.60;79.40;;;;;;2344643;57;21106;-52
2022/12/23 05:51:42;;;;;;;82.35;27.67;;;9.60;79.40;;;;;;2345170;57;21038;-49
2022/12/23 05:54:10;;;;;;;80.40;28.48;;;9.60;79.40;;;;;;2344802;57;21163;-54
2022/12/23 05:56:37;;;;;;;75.07;27.48;;;9.60;79.50;;;;;;2344142;57;21053;-50
2022/12/23 05:59:04;;;;;;;64.62;25.75;;;9.60;79.50;;;;;;2344882;57;21698;-51
2022/12/23 06:01:31;;;;;;;65.72;26.05;;;9.60;79.60;;;;;;2344677;57;21042;-54
2022/12/23 06:03:58;;;;;;;89.37;26.92;;;9.60;79.80;;;;;;2344803;57;21549;-53
2022/12/23 06:06:25;;;;;;;104.00;28.23;;;9.70;79.50;;;;;;2344764;57;21062;-52
2022/12/23 06:08:52;;;;;;;80.85;27.60;;;9.70;79.50;;;;;;2344604;57;21050;-51
2022/12/23 06:11:20;;;;;;;94.32;29.17;;;9.70;79.40;;;;;;2343944;57;21616;-52
2022/12/23 06:13:47;;;;;;;68.82;26.67;;;9.70;79.50;;;;;;2343875;57;21454;-53
2022/12/23 06:16:14;;;;;;;84.72;27.05;;;9.70;79.80;;;;;;2341810;57;21160;-58
2022/12/23 06:18:41;;;;;;;71.00;27.67;;;9.70;79.90;;;;;;2343800;57;21038;-52
2022/12/23 06:21:08;;;;;;;84.20;26.00;;;9.60;80.00;;;;;;2343839;57;21101;-51
2022/12/23 06:23:35;;;;;;;80.15;27.23;;;9.60;80.00;;;;;;2344137;57;21109;-54
2022/12/23 06:26:04;;;;;;;79.37;25.77;;;9.60;80.00;;;;;;2344326;57;21292;-52
2022/12/23 06:28:31;;;;;;;74.45;26.48;;;9.70;80.00;;;;;;2344897;57;21046;-53
2022/12/23 06:30:58;;;;;;;87.78;28.20;;;9.70;80.00;;;;;;2344581;57;21093;-54
2022/12/23 06:33:25;;;;;;;69.55;25.75;;;9.70;80.00;;;;;;2343840;57;21030;-51
2022/12/23 06:35:52;;;;;;;87.60;28.17;;;9.60;80.00;;;;;;2344712;57;21058;-52
2022/12/23 06:38:20;;;;;;;87.95;28.02;;;9.60;80.10;;;;;;2344716;57;21534;-54
2022/12/23 06:40:47;;;;;;;76.65;26.30;;;9.60;80.20;;;;;;2344851;57;21621;-53
2022/12/23 06:43:14;;;;;;;72.62;26.10;;;9.60;80.40;;;;;;2344821;57;21027;-51
2022/12/23 06:45:45;;;;;;;78.70;26.25;;;9.60;80.40;;;;;;2345584;57;21054;-51
2022/12/23 06:48:12;;;;;;;77.93;28.45;;;9.60;80.30;;;;;;2344670;57;21545;-48
2022/12/23 06:50:39;;;;;;;67.00;24.25;;;9.60;80.40;;;;;;2343977;57;21046;-54
2022/12/23 06:53:06;;;;;;;77.60;27.65;;;9.60;80.50;;;;;;2344762;57;21074;-50
2022/12/23 06:55:34;;;;;;;56.60;22.92;;;9.60;80.50;;;;;;2344531;57;21602;-55
2022/12/23 06:58:01;;;;;;;69.10;26.35;;;9.60;80.70;;;;;;2344366;57;21580;-50
2022/12/23 07:00:28;;;;;;;70.57;24.60;;;9.60;80.70;;;;;;2344741;57;21070;-49
2022/12/23 07:02:55;;;;;;;71.80;26.30;;;9.60;80.70;;;;;;2344628;57;21085;-51
2022/12/23 07:05:22;;;;;;;69.40;28.70;;;9.60;80.70;;;;;;2344223;57;21759;-50
2022/12/23 07:07:49;;;;;;;60.50;23.92;;;9.60;80.70;;;;;;2344591;57;21085;-50
2022/12/23 07:10:17;;;;;;;66.50;24.75;;;9.70;80.70;;;;;;2344823;57;21109;-54
2022/12/23 07:12:44;;;;;;;84.82;27.00;;;9.70;80.50;;;;;;2591397;53;21110;-54
2022/12/23 07:15:12;;;;;;;70.10;25.12;;;9.70;80.40;;;;;;2344650;57;21057;-49
2022/12/23 07:17:39;;;;;;;79.00;25.05;;;9.70;80.30;;;;;;2344109;57;21113;-53
2022/12/23 07:20:09;;;;;;;66.78;25.25;;;9.70;80.30;;;;;;2344800;57;21522;-53
2022/12/23 07:22:36;;;;;;;71.70;25.58;;;9.70;80.00;;;;;;2343822;57;21121;-52
2022/12/23 07:25:04;;;;;;;69.47;26.75;;;9.70;80.00;;;;;;2344748;57;21046;-51
2022/12/23 07:27:31;;;;;;;98.85;27.27;;;9.70;80.10;;;;;;2344739;57;21515;-52
2022/12/23 07:29:58;;;;;;;79.43;25.48;;;9.70;80.20;;;;;;2344750;57;21042;-50
2022/12/23 07:32:25;;;;;;;81.05;25.73;;;9.70;80.00;;;;;;2344224;57;21078;-50
2022/12/23 07:34:52;;;;;;;88.62;26.02;;;9.70;80.00;;;;;;2344961;57;21046;-51
2022/12/23 07:37:19;;;;;;;92.68;27.25;;;9.70;80.10;;;;;;2345100;57;21160;-54
2022/12/23 07:39:47;;;;;;;70.72;24.25;;;9.70;79.70;;;;;;2344488;57;21046;-53
2022/12/23 07:42:14;;;;;;;85.45;26.27;;;9.70;79.80;;;;;;2343639;57;21649;-53
2022/12/23 07:44:41;;;;;;;78.22;27.27;;;9.70;79.90;;;;;;2342720;57;21109;-51
2022/12/23 07:47:08;;;;;;;77.65;26.08;;;9.70;80.00;;;;;;2342871;57;21045;-52
2022/12/23 07:49:35;;;;;;;77.65;26.62;;;9.70;80.00;;;;;;2344360;57;21054;-53
2022/12/23 07:52:03;;;;;;;82.47;24.80;;;9.70;80.10;;;;;;2344484;57;21526;-55
2022/12/23 07:54:30;;;;;;;101.53;23.17;;;9.60;80.00;;;;;;2344426;57;21574;-53
2022/12/23 07:56:57;;;;;;;91.18;27.73;;;9.70;80.00;;;;;;2344062;57;21046;-52
2022/12/23 07:59:26;;;;;;;64.95;24.75;;;9.70;80.10;;;;;;2344657;57;21216;-50
2022/12/23 08:01:53;;;;;;;78.72;24.10;;;9.70;80.30;;;;;;2344617;57;21080;-54
2022/12/23 08:04:20;;;;;;;86.68;25.58;;;9.70;80.30;;;;;;2343390;57;21101;-53
2022/12/23 08:06:47;;;;;;;57.65;21.75;;;9.70;80.40;;;;;;2344014;57;21042;-51
2022/12/23 08:09:14;;;;;;;61.83;22.73;;;9.70;80.50;;;;;;2344559;57;21109;-53
2022/12/23 08:11:42;;;;;;;67.28;22.85;;;9.70;80.60;;;;;;2344159;57;21530;-52
2022/12/23 08:14:09;;;;;;;63.87;20.92;;;9.70;80.50;;;;;;2343308;57;21728;-51
2022/12/23 08:16:36;;;;;;;56.45;21.33;;;9.70;81.00;;;;;;2344022;57;22113;-55
2022/12/23 08:19:04;;;;;;;72.03;21.37;;;9.70;80.30;;;;;;2343956;57;21057;-52
2022/12/23 08:21:31;;;;;;;69.53;21.75;;;9.70;80.40;;;;;;2342925;57;21121;-52
2022/12/23 08:23:58;;;;;;;66.22;23.38;;;9.70;80.50;;;;;;2344224;57;21604;-53
2022/12/23 08:26:25;;;;;;;59.95;19.87;;;9.70;80.60;;;;;;2344874;57;21038;-52
2022/12/23 08:28:52;;;;;;;77.90;22.92;;;9.70;80.60;;;;;;2342763;57;21173;-52
2022/12/23 08:31:22;;;;;;;75.82;24.35;;;9.70;80.50;;;;;;2341582;57;21125;-52
2022/12/23 08:33:51;;;;;;;72.95;21.40;;;9.80;80.50;;;;;;2341889;57;21125;-51
2022/12/23 08:36:21;;;;;;;59.58;20.85;;;9.80;80.40;;;;;;2341622;57;21038;-54
2022/12/23 08:38:48;;;;;;;59.42;17.95;;;9.70;80.30;;;;;;2342615;57;21576;-51
2022/12/23 08:41:19;;;;;;;59.50;20.45;;;9.80;80.80;;;;;;2343518;57;22089;-53
2022/12/23 08:43:46;;;;;;;55.83;19.35;;;9.70;80.30;;;;;;2343415;57;22534;-53
2022/12/23 08:46:13;;;;;;;53.83;19.45;;;9.70;80.40;;;;;;2342957;57;21053;-53
2022/12/23 08:48:40;;;;;;;52.13;18.33;;;9.70;80.40;;;;;;2343425;57;21552;-51
2022/12/23 08:51:09;;;;;;;52.65;19.50;;;9.70;81.60;;;;;;2343711;57;21054;-53
2022/12/23 08:53:38;;;;;;;49.58;18.80;;;9.70;80.60;;;;;;2343199;57;21502;-52
2022/12/23 08:56:08;;;;;;;52.47;16.80;;;9.70;80.60;;;;;;2344825;57;21613;-52
2022/12/23 08:58:37;;;;;;;45.00;18.60;;;9.70;80.40;;;;;;2344984;57;21125;-53
2022/12/23 09:01:06;;;;;;;48.58;16.80;;;9.70;80.40;;;;;;2343549;57;21107;-53
2022/12/23 09:03:34;;;;;;;50.97;14.98;;;9.70;80.50;;;;;;2343089;57;21621;-52
2022/12/23 09:06:05;;;;;;;51.85;17.02;;;9.70;80.40;;;;;;2590832;53;21656;-54
2022/12/23 09:08:32;;;;;;;49.25;17.73;;;9.70;80.20;;;;;;2343560;57;22126;-52
2022/12/23 09:11:00;;;;;;;52.53;17.73;;;9.70;81.30;;;;;;2343103;57;22086;-51
2022/12/23 09:13:27;;;;;;;42.08;17.30;;;9.80;80.60;;;;;;2343060;57;21609;-51
2022/12/23 09:15:55;;;;;;;51.03;18.20;;;9.80;80.60;;;;;;2344702;57;21121;-54
2022/12/23 09:18:22;;;;;;;43.17;16.62;;;9.80;80.50;;;;;;2344956;57;21101;-53
2022/12/23 09:20:56;;;;;;;48.33;18.10;;;9.80;80.40;;;;;;2344147;57;21026;-55
2022/12/23 09:23:23;;;;;;;54.75;17.33;;;9.80;80.50;;;;;;2343758;57;21518;-53
2022/12/23 09:25:50;;;;;;;51.50;18.70;;;9.80;80.40;;;;;;2343997;57;21545;-55
2022/12/23 09:28:17;;;;;;;61.50;19.35;;;9.90;80.10;;;;;;2343629;57;21105;-52
2022/12/23 09:30:44;;;;;;;77.72;21.45;;;9.90;80.20;;;;;;2343499;57;21034;-53
2022/12/23 09:33:12;;;;;;;54.53;18.85;;;9.90;80.30;;;;;;2344544;57;21042;-54
2022/12/23 09:35:39;;;;;;;56.80;18.80;;;9.90;80.20;;;;;;2344403;57;21054;-52
2022/12/23 09:38:06;;;;;;;60.10;20.27;;;9.90;80.30;;;;;;2344260;57;21688;-52
2022/12/23 09:40:36;;;;;;;52.53;19.55;;;9.90;80.30;;;;;;2342281;57;21159;-54
2022/12/23 09:43:14;;;;;;;48.50;18.05;;;9.90;80.30;;;;;;2591328;52;21499;-56
2022/12/23 09:46:05;;;;;;;59.97;21.10;;;9.90;80.50;;;;;;2345382;57;21002;-51
2022/12/23 09:48:38;;;;;;;55.03;19.02;;;9.90;80.50;;;;;;2345886;57;21487;-54
2022/12/23 09:51:06;;;;;;;67.53;18.80;;;10.00;80.20;;;;;;2345852;57;21049;-52
2022/12/23 09:53:45;;;;;;;59.40;17.77;;;10.00;80.20;;;;;;2343496;57;21546;-50
2022/12/23 09:56:19;;;;;;;58.53;19.92;;;9.90;80.30;;;;;;2344098;57;21694;-51
2022/12/23 09:58:52;;;;;;;49.83;18.27;;;9.90;80.20;;;;;;2343785;57;21566;-55
2022/12/23 10:01:27;;;;;;;47.35;17.02;;;9.90;80.30;;;;;;2344348;57;21626;-53
2022/12/23 10:04:19;;;;;;;67.95;19.23;;;9.90;80.40;;;;;;2344804;57;22100;-50
2022/12/23 10:06:55;;;;;;;56.67;18.95;;;9.90;80.30;;;;;;2345231;57;21561;-56
2022/12/23 10:09:22;;;;;;;64.85;20.50;;;9.90;80.30;;;;;;2344940;57;21626;-52
2022/12/23 10:11:52;;;;;;;67.35;20.95;;;10.00;80.30;;;;;;2345216;57;21569;-52
2022/12/23 10:14:22;;;;;;;65.60;21.12;;;9.90;80.40;;;;;;2344500;57;21129;-53
2022/12/23 10:16:53;;;;;;;61.05;21.42;;;9.90;80.50;;;;;;2344190;57;21030;-55
2022/12/23 10:19:27;;;;;;;50.95;19.35;;;10.00;80.70;;;;;;2344755;57;21104;-54
2022/12/23 10:22:01;;;;;;;47.17;16.83;;;10.00;80.60;;;;;;2344514;57;21582;-51
2022/12/23 10:24:34;;;;;;;47.08;17.90;;;10.00;80.80;;;;;;2344732;57;22213;-54
2022/12/23 10:27:05;;;;;;;52.15;18.25;;;10.10;80.90;;;;;;2344829;57;21670;-52
2022/12/23 10:29:33;;;;;;;50.75;19.02;;;10.10;80.40;;;;;;2342962;57;21529;-55
2022/12/23 10:32:13;;;;;;;57.45;19.20;;;10.10;80.30;;;;;;2344711;57;21070;-52
2022/12/23 10:34:45;;;;;;;56.05;20.00;;;10.10;80.50;;;;;;2345614;57;21026;-53
2022/12/23 10:37:19;;;;;;;51.72;18.27;;;10.00;80.50;;;;;;2345944;57;21010;-53
2022/12/23 10:39:55;;;;;;;41.60;17.58;;;10.10;80.70;;;;;;2345934;57;21074;-51
2022/12/23 10:45:29;;;;;;;44.75;16.25;;;10.10;80.80;;;;;;2353544;57;22109;-55
2022/12/23 10:48:07;;;;;;;47.28;17.73;;;10.10;80.50;;;;;;2346851;57;21627;-53
2022/12/23 10:50:52;;;;;;;44.50;17.40;;;10.10;80.30;;;;;;2319161;58;21064;-54
2022/12/23 10:53:29;;;;;;;39.00;14.18;;;10.10;80.50;;;;;;2319538;58;21190;-54
2022/12/23 10:55:57;;;;;;;47.90;17.67;;;10.10;80.50;;;;;;2319595;58;21552;-55
2022/12/23 10:58:25;;;;;;;35.15;15.43;;;10.10;80.60;;;;;;2319870;58;21690;-52
2022/12/23 11:00:55;;;;;;;43.47;16.60;;;10.10;80.80;;;;;;2318151;58;21051;-55
2022/12/23 11:03:28;;;;;;;46.67;16.58;;;10.20;80.90;;;;;;2318270;58;21615;-55
2022/12/23 11:05:57;;;;;;;46.90;17.00;;;10.20;80.80;;;;;;2320227;58;21524;-53
2022/12/23 11:08:27;;;;;;;39.85;15.77;;;10.20;80.60;;;;;;2320260;58;21872;-52
2022/12/23 11:10:55;;;;;;;45.53;17.27;;;10.20;80.60;;;;;;2320167;58;21560;-52
2022/12/23 11:13:33;;;;;;;44.38;17.83;;;10.20;80.70;;;;;;2320173;58;21614;-54
2022/12/23 11:18:57;;;;;;;37.42;15.73;;;10.30;80.80;;;;;;2363228;56;22160;-49
2022/12/23 11:21:24;;;;;;;;;;;10.30;80.60;;;;;;2377032;56;21173;-53
2022/12/23 11:24:15;;;;;;;44.60;16.62;;;10.40;80.60;;;;;;2373828;56;20089;-55
2022/12/23 11:26:42;;;;;;;42.17;16.58;;;10.30;80.10;;;;;;2374810;56;21003;-52
2022/12/23 11:29:15;;;;;;;44.28;17.25;;;10.30;80.10;;;;;;2374246;56;21102;-55
2022/12/23 11:31:43;;;;;;;48.55;17.75;;;10.30;80.40;;;;;;2374438;56;21098;-52
2022/12/23 11:34:16;;;;;;;39.17;15.82;;;10.40;80.40;;;;;;2375470;56;21022;-53
2022/12/23 11:36:43;;;;;;;42.67;16.40;;;10.40;80.30;;;;;;2376030;56;21062;-53
2022/12/23 11:39:22;;;;;;;47.22;18.48;;;10.40;80.10;;;;;;2374268;56;21300;-55
2022/12/23 11:41:52;;;;;;;47.78;16.98;;;10.40;80.00;;;;;;2374195;56;21059;-52
2022/12/23 11:44:23;;;;;;;39.72;16.87;;;10.50;79.90;;;;;;2373478;56;21570;-52
2022/12/23 11:46:50;;;;;;;41.90;17.98;;;10.50;79.90;;;;;;2372143;56;21015;-55
2022/12/23 11:49:19;;;;;;;38.20;15.05;;;10.50;79.90;;;;;;2372334;56;21583;-55
2022/12/23 11:51:59;;;;;;;35.47;15.95;;;10.40;79.90;;;;;;2628629;52;22209;-56
2022/12/23 11:54:28;;;;;;;44.45;17.55;;;10.40;80.00;;;;;;2374198;56;21058;-52
2022/12/23 11:56:56;;;;;;;32.22;13.88;;;10.40;80.00;;;;;;2373682;56;21038;-54
2022/12/23 11:59:34;;;;;;;36.40;15.48;;;10.50;80.20;;;;;;2374356;56;21609;-54
2022/12/23 12:02:03;;;;;;;38.35;16.33;;;10.50;80.40;;;;;;2374289;56;21503;-54
2022/12/23 12:04:33;;;;;;;41.15;17.35;;;10.50;80.20;;;;;;2374035;56;21586;-52
2022/12/23 12:07:03;;;;;;;47.58;18.45;;;10.50;80.20;;;;;;2627991;52;21497;-52
2022/12/23 12:09:31;;;;;;;52.95;19.12;;;10.60;80.10;;;;;;2373774;56;21031;-51
2022/12/23 12:12:04;;;;;;;38.28;14.77;;;10.50;79.90;;;;;;2374173;56;21553;-53
2022/12/23 12:14:40;;;;;;;48.75;18.23;;;10.60;80.10;;;;;;2374287;56;21077;-50
2022/12/23 12:17:15;;;;;;;42.85;17.75;;;10.60;80.00;;;;;;2375043;56;21098;-52
2022/12/23 12:19:53;;;;;;;43.10;18.45;;;10.60;80.10;;;;;;2375622;56;21093;-54
2022/12/23 12:22:29;;;;;;;46.90;18.00;;;10.60;80.00;;;;;;2375415;56;21561;-52
2022/12/23 12:24:57;;;;;;;40.10;17.17;;;10.70;80.00;;;;;;2373110;56;21165;-49
2022/12/23 12:27:33;;;;;;;47.40;17.73;;;10.70;79.80;;;;;;2375173;56;21051;-53
2022/12/23 12:30:04;;;;;;;41.55;17.52;;;10.70;79.60;;;;;;2373683;56;21035;-52
2022/12/23 12:32:39;;;;;;;39.53;17.10;;;10.70;79.30;;;;;;2373189;56;21113;-54
2022/12/23 12:35:14;;;;;;;36.78;15.75;;;10.70;79.20;;;;;;2373635;56;21677;-53
2022/12/23 12:37:47;;;;;;;41.13;17.42;;;10.70;79.10;;;;;;2373529;56;21130;-53
2022/12/23 12:40:19;;;;;;;;;;;10.70;79.80;;;;;;2377432;56;21034;-53
2022/12/23 12:45:35;;;;;;;39.22;15.40;;;10.80;78.30;;;;;;2356452;57;22066;-55
2022/12/23 12:48:24;;;;;;;33.72;14.80;;;10.80;78.30;;;;;;2347771;57;21046;-56
2022/12/23 12:50:58;;;;;;;32.13;15.23;;;10.70;78.40;;;;;;2320479;58;21119;-55
2022/12/23 12:53:27;;;;;;;37.47;16.77;;;10.70;78.40;;;;;;2320092;58;21139;-54
2022/12/23 12:55:59;;;;;;;36.80;16.80;;;10.70;78.50;;;;;;2320227;58;21055;-51
2022/12/23 12:58:27;;;;;;;34.20;15.30;;;10.70;78.60;;;;;;2320072;58;21139;-54
2022/12/23 13:01:08;;;;;;;41.92;17.67;;;10.70;78.70;;;;;;2319790;58;21044;-50
2022/12/23 13:06:54;;;;;;;31.12;13.68;;;10.70;78.90;;;;;;2355759;57;22085;-50
2022/12/23 13:09:28;;;;;;;31.30;15.27;;;10.60;78.70;;;;;;2347121;57;21620;-54
2022/12/23 13:12:02;;;;;;;31.70;13.60;;;10.70;78.80;;;;;;2347286;57;21034;-55
2022/12/23 13:14:42;;;;;;;25.37;11.73;;;10.60;78.80;;;;;;2346400;57;21014;-53
2022/12/23 13:17:16;;;;;;;31.37;14.00;;;10.60;79.00;;;;;;2345938;57;21049;-55
2022/12/23 13:19:50;;;;;;;29.35;13.13;;;10.60;79.00;;;;;;2345898;57;21105;-56
2022/12/23 13:22:21;;;;;;;32.85;15.50;;;10.60;78.90;;;;;;2345856;57;21097;-56
2022/12/23 13:24:56;;;;;;;29.52;13.50;;;10.60;78.80;;;;;;2345742;57;21554;-54
2022/12/23 13:27:29;;;;;;;34.95;15.25;;;10.60;78.80;;;;;;2345721;57;21108;-55
2022/12/23 13:30:12;;;;;;;34.05;14.50;;;10.60;78.70;;;;;;2345909;57;22059;-56
2022/12/23 13:33:00;;;;;;;34.00;14.10;;;10.70;78.50;;;;;;2345264;57;21618;-56
2022/12/23 13:35:41;;;;;;;33.88;15.55;;;10.70;78.30;;;;;;2346475;57;21191;-53
2022/12/23 13:38:23;;;;;;;31.87;14.65;;;10.70;78.30;;;;;;2346646;57;21137;-51